createdAt,value
2023-05-10T00:01:04.224Z,50.00
2023-05-10T00:03:31.811Z,50.00
2023-05-10T00:06:05.966Z,50.00
2023-05-10T00:08:33.173Z,50.01
2023-05-10T00:11:00.650Z,49.97
2023-05-10T00:13:30.870Z,49.98
2023-05-10T00:16:05.288Z,50.02
2023-05-10T00:18:32.488Z,50.02
2023-05-10T00:21:03.246Z,50.05
2023-05-10T00:23:33.979Z,50.07
2023-05-10T00:26:07.094Z,50.11
2023-05-10T00:28:34.823Z,50.15
2023-05-10T00:31:04.545Z,50.14
2023-05-10T00:33:31.727Z,50.13
2023-05-10T00:36:03.783Z,50.15
2023-05-10T00:38:30.961Z,50.04
2023-05-10T00:41:01.360Z,50.11
2023-05-10T00:43:32.657Z,50.15
2023-05-10T00:46:06.148Z,50.12
2023-05-10T00:48:39.827Z,50.16
2023-05-10T00:51:07.077Z,50.20
2023-05-10T00:53:38.736Z,50.10
2023-05-10T00:56:12.776Z,50.18
2023-05-10T00:58:43.812Z,50.13
2023-05-10T01:01:11.596Z,50.19
2023-05-10T01:03:41.866Z,50.20
2023-05-10T01:06:09.094Z,50.22
2023-05-10T01:08:39.525Z,50.24
2023-05-10T01:11:10.436Z,50.22
2023-05-10T01:13:40.968Z,50.19
2023-05-10T01:16:11.798Z,50.28
2023-05-10T01:18:43.694Z,50.30
2023-05-10T01:21:37.124Z,50.24
2023-05-10T01:24:10.369Z,50.28
2023-05-10T01:26:46.468Z,50.30
2023-05-10T01:29:19.572Z,50.37
2023-05-10T01:32:05.499Z,50.34
2023-05-10T01:34:46.698Z,50.32
2023-05-10T01:37:17.867Z,50.42
2023-05-10T01:39:51.197Z,50.39
2023-05-10T01:42:28.016Z,50.37
2023-05-10T01:44:58.712Z,50.35
2023-05-10T01:47:31.975Z,50.40
2023-05-10T01:50:02.949Z,50.39
2023-05-10T01:52:43.252Z,50.41
2023-05-10T01:55:13.518Z,50.37
2023-05-10T01:57:46.390Z,50.42
2023-05-10T02:00:13.677Z,50.40
2023-05-10T02:02:42.450Z,50.38
2023-05-10T02:05:14.617Z,50.38
2023-05-10T02:07:48.609Z,50.48
2023-05-10T02:10:19.378Z,50.44
2023-05-10T02:12:48.795Z,50.43
2023-05-10T02:15:18.845Z,50.41
2023-05-10T02:17:50.913Z,50.42
2023-05-10T02:20:20.803Z,50.36
2023-05-10T02:22:52.453Z,50.39
2023-05-10T02:25:21.185Z,50.41
2023-05-10T02:27:52.837Z,50.42
2023-05-10T02:30:20.330Z,50.42
2023-05-10T02:32:48.664Z,50.36
2023-05-10T02:35:16.701Z,50.36
2023-05-10T02:37:48.332Z,50.42
2023-05-10T02:40:18.081Z,50.40
2023-05-10T02:42:46.482Z,50.42
2023-05-10T02:45:16.872Z,50.38
2023-05-10T02:47:44.206Z,50.45
2023-05-10T02:50:11.809Z,50.39
2023-05-10T02:52:41.440Z,50.27
2023-05-10T02:55:10.848Z,50.31
2023-05-10T02:57:40.313Z,50.37
2023-05-10T03:00:08.099Z,50.36
2023-05-10T03:02:42.353Z,50.32
2023-05-10T03:05:16.409Z,50.30
2023-05-10T03:07:51.342Z,50.35
2023-05-10T03:10:19.645Z,50.38
2023-05-10T03:13:23.154Z,50.36
2023-05-10T03:16:10.160Z,50.34
2023-05-10T03:18:56.221Z,50.34
2023-05-10T03:21:27.786Z,50.36
2023-05-10T03:24:05.686Z,50.42
2023-05-10T03:26:34.250Z,50.41
2023-05-10T03:29:02.088Z,50.36
2023-05-10T03:31:32.376Z,50.33
2023-05-10T03:34:05.987Z,50.43
2023-05-10T03:36:33.544Z,50.44
2023-05-10T03:39:00.731Z,50.43
2023-05-10T03:41:31.557Z,50.41
2023-05-10T03:43:58.782Z,50.48
2023-05-10T03:46:26.199Z,50.49
2023-05-10T03:48:56.556Z,50.45
2023-05-10T03:51:23.809Z,50.47
2023-05-10T03:53:50.883Z,50.46
2023-05-10T03:56:25.210Z,50.48
2023-05-10T03:58:53.112Z,50.44
2023-05-10T04:01:20.462Z,50.40
2023-05-10T04:03:50.431Z,50.34
2023-05-10T04:06:21.031Z,50.23
2023-05-10T04:08:51.124Z,50.41
2023-05-10T04:11:22.079Z,50.54
2023-05-10T04:13:52.334Z,50.66
2023-05-10T04:16:23.404Z,50.69
2023-05-10T04:18:56.873Z,50.66
2023-05-10T04:21:24.149Z,50.62
2023-05-10T04:23:51.329Z,50.65
2023-05-10T04:26:21.395Z,50.59
2023-05-10T04:28:48.798Z,50.60
2023-05-10T04:31:21.942Z,50.66
2023-05-10T04:33:50.285Z,50.58
2023-05-10T04:36:18.296Z,50.58
2023-05-10T04:38:45.175Z,50.55
2023-05-10T04:41:15.315Z,50.52
2023-05-10T04:43:48.925Z,50.44
2023-05-10T04:46:16.475Z,50.45
2023-05-10T04:48:47.372Z,50.50
2023-05-10T04:51:14.526Z,50.41
2023-05-10T04:53:48.579Z,50.48
2023-05-10T04:56:24.966Z,50.33
2023-05-10T04:58:52.281Z,50.26
2023-05-10T05:01:19.992Z,49.99
2023-05-10T05:03:49.551Z,50.15
2023-05-10T05:06:16.936Z,49.95
2023-05-10T05:08:46.891Z,49.84
2023-05-10T05:11:13.963Z,49.88
2023-05-10T05:13:43.586Z,49.80
2023-05-10T05:16:14.213Z,49.73
2023-05-10T05:18:41.425Z,49.78
2023-05-10T05:21:15.721Z,49.71
2023-05-10T05:23:43.260Z,49.86
2023-05-10T05:26:14.050Z,50.25
2023-05-10T05:28:42.962Z,51.33
2023-05-10T05:31:13.201Z,51.20
2023-05-10T05:33:45.127Z,51.00
2023-05-10T05:36:15.367Z,50.87
2023-05-10T05:38:45.077Z,50.79
2023-05-10T05:41:16.940Z,50.99
2023-05-10T05:43:43.736Z,51.03
2023-05-10T05:46:13.141Z,50.92
2023-05-10T05:48:39.839Z,50.85
2023-05-10T05:51:09.553Z,50.91
2023-05-10T05:53:39.055Z,50.94
2023-05-10T05:56:09.496Z,50.84
2023-05-10T05:58:37.981Z,51.34
2023-05-10T06:01:07.026Z,51.26
2023-05-10T06:03:36.804Z,51.57
2023-05-10T06:06:03.946Z,51.73
2023-05-10T06:08:37.694Z,51.81
2023-05-10T06:11:07.547Z,51.82
2023-05-10T06:13:39.775Z,51.79
2023-05-10T06:16:09.504Z,51.85
2023-05-10T06:18:39.434Z,51.76
2023-05-10T06:21:06.509Z,51.38
2023-05-10T06:23:33.641Z,51.41
2023-05-10T06:26:03.682Z,51.50
2023-05-10T06:28:30.401Z,51.76
2023-05-10T06:31:01.940Z,51.74
2023-05-10T06:33:31.800Z,52.15
2023-05-10T06:36:01.528Z,52.11
2023-05-10T06:38:28.318Z,51.93
2023-05-10T06:40:57.676Z,51.71
2023-05-10T06:43:27.548Z,51.57
2023-05-10T06:45:57.229Z,51.44
2023-05-10T06:48:29.783Z,51.51
2023-05-10T06:50:57.654Z,51.29
2023-05-10T06:53:24.275Z,50.96
2023-05-10T06:55:54.409Z,51.07
2023-05-10T06:58:24.432Z,51.03
2023-05-10T07:00:51.215Z,51.00
2023-05-10T07:03:20.061Z,50.94
2023-05-10T07:05:47.021Z,50.87
2023-05-10T07:08:13.714Z,50.85
2023-05-10T07:10:40.435Z,50.81
2023-05-10T07:13:08.010Z,50.75
2023-05-10T07:15:40.615Z,50.88
2023-05-10T07:18:07.585Z,50.81
2023-05-10T07:20:34.593Z,50.73
2023-05-10T07:23:04.445Z,50.88
2023-05-10T07:25:34.603Z,50.84
2023-05-10T07:28:01.377Z,50.63
2023-05-10T07:30:31.609Z,50.51
2023-05-10T07:33:01.295Z,50.58
2023-05-10T07:35:31.146Z,50.62
2023-05-10T07:38:03.093Z,50.70
2023-05-10T07:40:37.617Z,50.62
2023-05-10T07:43:07.198Z,50.56
2023-05-10T07:45:38.100Z,50.66
2023-05-10T07:48:08.308Z,50.64
2023-05-10T07:50:37.190Z,50.50
2023-05-10T07:53:09.356Z,50.47
2023-05-10T07:55:43.413Z,50.44
2023-05-10T07:58:12.792Z,50.50
2023-05-10T08:00:40.087Z,50.46
2023-05-10T08:03:12.551Z,50.45
2023-05-10T08:05:42.924Z,50.51
2023-05-10T08:08:09.822Z,50.48
2023-05-10T08:10:36.979Z,50.43
2023-05-10T08:13:03.768Z,50.43
2023-05-10T08:15:37.301Z,50.42
2023-05-10T08:18:04.150Z,50.35
2023-05-10T08:20:35.037Z,50.35
2023-05-10T08:23:04.175Z,50.33
2023-05-10T08:25:35.019Z,50.29
2023-05-10T08:28:05.214Z,50.48
2023-05-10T08:30:34.838Z,50.86
2023-05-10T08:33:05.007Z,51.22
2023-05-10T08:35:35.356Z,51.52
2023-05-10T08:38:05.774Z,51.88
2023-05-10T08:40:32.590Z,52.09
2023-05-10T08:43:12.729Z,52.24
2023-05-10T08:45:43.407Z,52.21
2023-05-10T08:48:11.026Z,52.20
2023-05-10T08:50:42.126Z,52.19
2023-05-10T08:53:13.310Z,52.15
2023-05-10T08:55:47.060Z,52.11
2023-05-10T08:58:14.157Z,51.88
2023-05-10T09:00:47.071Z,51.97
2023-05-10T09:03:14.186Z,51.50
2023-05-10T09:05:43.803Z,50.84
2023-05-10T09:08:10.688Z,50.01
2023-05-10T09:10:38.233Z,49.43
2023-05-10T09:13:09.733Z,49.37
2023-05-10T09:15:40.067Z,49.33
2023-05-10T09:18:06.625Z,48.86
2023-05-10T09:20:33.408Z,48.79
2023-05-10T09:23:04.366Z,48.73
2023-05-10T09:25:34.351Z,48.94
2023-05-10T09:28:10.358Z,48.98
2023-05-10T09:30:40.363Z,49.19
2023-05-10T09:33:10.548Z,48.68
2023-05-10T09:35:37.396Z,48.58
2023-05-10T09:38:08.508Z,49.42
2023-05-10T09:40:35.399Z,49.86
2023-05-10T09:43:07.479Z,50.00
2023-05-10T09:45:37.705Z,50.07
2023-05-10T09:48:08.652Z,49.16
2023-05-10T09:50:42.174Z,49.00
2023-05-10T09:53:16.964Z,48.96
2023-05-10T09:55:44.678Z,49.23
2023-05-10T09:58:16.908Z,49.70
2023-05-10T10:00:45.736Z,50.14
2023-05-10T10:03:16.758Z,50.58
2023-05-10T10:05:56.363Z,50.64
2023-05-10T10:08:29.516Z,50.94
2023-05-10T10:11:01.941Z,51.22
2023-05-10T10:13:38.618Z,51.28
2023-05-10T10:16:09.280Z,51.44
2023-05-10T10:18:42.936Z,51.36
2023-05-10T10:21:10.593Z,51.55
2023-05-10T10:23:41.375Z,51.26
2023-05-10T10:26:13.116Z,51.30
2023-05-10T10:28:59.476Z,51.28
2023-05-10T10:31:36.406Z,51.58
2023-05-10T10:34:25.156Z,51.55
2023-05-10T10:36:56.084Z,51.59
2023-05-10T10:39:25.809Z,51.52
2023-05-10T10:41:58.947Z,51.34
2023-05-10T10:44:32.098Z,51.21
2023-05-10T10:47:11.243Z,51.16
2023-05-10T10:49:41.406Z,51.20
2023-05-10T10:52:35.544Z,51.05
2023-05-10T10:55:05.699Z,51.08
2023-05-10T10:57:35.078Z,51.10
2023-05-10T11:00:20.886Z,51.07
2023-05-10T11:02:52.322Z,51.12
2023-05-10T11:05:26.301Z,50.99
2023-05-10T11:08:00.343Z,51.22
2023-05-10T11:10:39.448Z,51.09
2023-05-10T11:13:13.368Z,51.22
2023-05-10T11:15:51.228Z,51.27
2023-05-10T11:18:23.744Z,51.27
2023-05-10T11:21:00.021Z,51.26
2023-05-10T11:23:34.011Z,51.30
2023-05-10T11:26:04.347Z,51.37
2023-05-10T11:28:34.947Z,51.39
2023-05-10T11:31:01.920Z,51.37
2023-05-10T11:33:28.814Z,51.40
2023-05-10T11:35:58.974Z,51.39
2023-05-10T11:38:25.927Z,51.46
2023-05-10T11:40:54.909Z,51.47
2023-05-10T11:43:26.848Z,51.51
2023-05-10T11:45:54.234Z,51.51
2023-05-10T11:48:26.481Z,51.49
2023-05-10T11:50:53.367Z,51.51
2023-05-10T11:53:25.817Z,51.55
2023-05-10T11:55:55.768Z,51.56
2023-05-10T11:58:23.572Z,51.58
2023-05-10T12:00:57.750Z,51.61
2023-05-10T12:03:24.939Z,51.60
2023-05-10T12:05:53.433Z,51.60
2023-05-10T12:08:27.612Z,51.57
2023-05-10T12:10:55.384Z,51.55
2023-05-10T12:13:22.125Z,51.56
2023-05-10T12:15:48.948Z,51.54
2023-05-10T12:18:16.078Z,51.51
2023-05-10T12:20:42.826Z,51.52
2023-05-10T12:23:11.135Z,51.53
2023-05-10T12:25:41.463Z,51.54
2023-05-10T12:28:09.405Z,51.54
2023-05-10T12:30:39.904Z,51.54
2023-05-10T12:33:16.322Z,51.52
2023-05-10T12:35:50.469Z,51.49
2023-05-10T12:38:32.390Z,51.48
2023-05-10T12:41:03.260Z,51.45
2023-05-10T12:43:32.934Z,51.45
2023-05-10T12:46:07.487Z,51.48
2023-05-10T12:48:37.326Z,51.57
2023-05-10T12:51:07.509Z,51.58
2023-05-10T12:53:34.330Z,51.56
2023-05-10T12:56:04.010Z,51.57
2023-05-10T12:58:37.176Z,51.55
2023-05-10T13:01:04.331Z,51.55
2023-05-10T13:03:32.880Z,51.53
2023-05-10T13:05:59.709Z,51.50
2023-05-10T13:08:31.019Z,51.44
2023-05-10T13:11:03.684Z,51.49
2023-05-10T13:13:33.322Z,51.58
2023-05-10T13:16:00.178Z,51.49
2023-05-10T13:18:30.006Z,51.44
2023-05-10T13:20:56.868Z,51.47
2023-05-10T13:23:30.464Z,51.33
2023-05-10T13:25:59.904Z,51.39
2023-05-10T13:28:29.975Z,51.36
2023-05-10T13:30:58.200Z,51.41
2023-05-10T13:33:26.243Z,51.47
2023-05-10T13:35:56.018Z,51.45
2023-05-10T13:38:25.828Z,51.42
2023-05-10T13:40:52.980Z,51.52
2023-05-10T13:43:19.940Z,51.52
2023-05-10T13:45:46.591Z,51.43
2023-05-10T13:48:18.826Z,51.45
2023-05-10T13:50:48.673Z,51.39
2023-05-10T13:53:17.947Z,51.30
2023-05-10T13:56:03.303Z,51.37
2023-05-10T13:58:33.552Z,51.46
2023-05-10T14:01:00.177Z,51.49
2023-05-10T14:03:32.972Z,51.65
2023-05-10T14:06:00.537Z,51.60
2023-05-10T14:08:30.249Z,51.77
2023-05-10T14:11:05.259Z,52.04
2023-05-10T14:13:38.312Z,52.20
2023-05-10T14:16:08.797Z,52.39
2023-05-10T14:18:36.446Z,52.48
2023-05-10T14:21:06.236Z,52.36
2023-05-10T14:23:35.594Z,52.39
2023-05-10T14:26:11.636Z,52.49
2023-05-10T14:28:40.061Z,52.25
2023-05-10T14:31:09.623Z,51.94
2023-05-10T14:33:39.598Z,51.94
2023-05-10T14:36:07.041Z,52.36
2023-05-10T14:38:33.812Z,52.48
2023-05-10T14:41:04.538Z,52.39
2023-05-10T14:43:33.948Z,52.18
2023-05-10T14:46:03.404Z,52.03
2023-05-10T14:48:33.030Z,51.96
2023-05-10T14:51:02.469Z,51.85
2023-05-10T14:53:38.063Z,51.75
2023-05-10T14:56:07.246Z,51.84
2023-05-10T14:58:34.366Z,51.92
2023-05-10T15:01:04.832Z,51.93
2023-05-10T15:03:35.648Z,51.80
2023-05-10T15:06:02.998Z,51.72
2023-05-10T15:08:36.382Z,51.69
2023-05-10T15:11:06.872Z,51.69
2023-05-10T15:13:33.898Z,51.61
2023-05-10T15:16:05.290Z,51.56
2023-05-10T15:18:35.428Z,51.55
2023-05-10T15:21:11.146Z,51.50
2023-05-10T15:23:41.596Z,51.45
2023-05-10T15:26:08.188Z,51.46
2023-05-10T15:28:34.954Z,51.44
2023-05-10T15:31:02.238Z,51.61
2023-05-10T15:33:29.594Z,51.79
2023-05-10T15:35:56.164Z,51.87
2023-05-10T15:38:25.925Z,51.81
2023-05-10T15:40:59.674Z,51.66
2023-05-10T15:43:26.369Z,51.59
2023-05-10T15:45:53.055Z,51.52
2023-05-10T15:48:23.033Z,51.43
2023-05-10T15:50:49.927Z,51.37
2023-05-10T15:53:24.606Z,51.32
2023-05-10T15:55:54.364Z,51.20
2023-05-10T15:58:21.518Z,51.18
2023-05-10T16:00:51.763Z,51.12
2023-05-10T16:03:19.102Z,51.05
2023-05-10T16:05:52.781Z,51.11
2023-05-10T16:08:19.880Z,51.32
2023-05-10T16:10:53.456Z,51.37
2023-05-10T16:13:23.330Z,51.47
2023-05-10T16:15:50.078Z,51.47
2023-05-10T16:18:17.292Z,51.48
2023-05-10T16:20:44.821Z,51.22
2023-05-10T16:23:15.159Z,50.98
2023-05-10T16:25:42.325Z,51.17
2023-05-10T16:28:09.442Z,51.08
2023-05-10T16:30:39.873Z,51.25
2023-05-10T16:33:07.097Z,51.24
2023-05-10T16:35:34.282Z,51.37
2023-05-10T16:38:04.213Z,51.61
2023-05-10T16:40:37.480Z,51.57
2023-05-10T16:43:10.358Z,51.42
2023-05-10T16:45:39.474Z,51.36
2023-05-10T16:48:11.757Z,51.32
2023-05-10T16:50:50.159Z,51.36
2023-05-10T16:53:20.776Z,51.50
2023-05-10T16:55:51.038Z,51.21
2023-05-10T16:58:21.367Z,51.48
2023-05-10T17:00:48.573Z,51.49
2023-05-10T17:03:19.196Z,51.64
2023-05-10T17:05:53.937Z,51.90
2023-05-10T17:08:25.279Z,52.09
2023-05-10T17:10:55.282Z,51.98
2023-05-10T17:13:25.098Z,51.99
2023-05-10T17:16:00.665Z,51.89
2023-05-10T17:18:31.242Z,51.78
2023-05-10T17:21:04.505Z,51.71
2023-05-10T17:23:35.019Z,51.67
2023-05-10T17:26:04.825Z,51.56
2023-05-10T17:28:34.792Z,51.40
2023-05-10T17:31:02.564Z,51.34
2023-05-10T17:33:32.669Z,50.96
2023-05-10T17:35:59.620Z,50.49
2023-05-10T17:38:34.725Z,49.87
2023-05-10T17:41:11.696Z,50.16
2023-05-10T17:43:38.992Z,50.62
2023-05-10T17:46:10.912Z,50.69
2023-05-10T17:48:37.764Z,50.71
2023-05-10T17:51:08.262Z,50.69
2023-05-10T17:53:41.544Z,50.77
2023-05-10T17:56:08.885Z,51.54
2023-05-10T17:58:48.793Z,51.94
2023-05-10T18:01:16.524Z,52.32
2023-05-10T18:03:44.340Z,52.26
2023-05-10T18:06:12.046Z,52.78
2023-05-10T18:08:46.910Z,53.00
2023-05-10T18:11:20.447Z,53.05
2023-05-10T18:13:47.685Z,53.27
2023-05-10T18:16:14.667Z,52.80
2023-05-10T18:18:44.607Z,52.62
2023-05-10T18:21:17.408Z,52.72
2023-05-10T18:23:44.883Z,52.36
2023-05-10T18:26:15.193Z,52.25
2023-05-10T18:28:51.278Z,52.20
2023-05-10T18:31:24.828Z,52.08
2023-05-10T18:33:52.226Z,52.01
2023-05-10T18:36:24.233Z,51.91
2023-05-10T18:38:53.058Z,51.82
2023-05-10T18:41:23.346Z,51.84
2023-05-10T18:43:56.545Z,51.80
2023-05-10T18:46:28.343Z,51.86
2023-05-10T18:48:59.951Z,51.94
2023-05-10T18:51:30.667Z,51.70
2023-05-10T18:54:03.116Z,51.95
2023-05-10T18:56:33.253Z,52.08
2023-05-10T18:59:01.198Z,52.35
2023-05-10T19:01:30.237Z,52.33
2023-05-10T19:03:57.273Z,52.11
2023-05-10T19:06:30.107Z,51.88
2023-05-10T19:09:01.169Z,51.84
2023-05-10T19:11:36.429Z,51.74
2023-05-10T19:14:06.854Z,51.68
2023-05-10T19:16:35.050Z,51.43
2023-05-10T19:19:07.145Z,51.58
2023-05-10T19:21:39.049Z,51.67
2023-05-10T19:24:17.422Z,51.61
2023-05-10T19:26:48.487Z,51.65
2023-05-10T19:29:25.871Z,51.70
2023-05-10T19:31:55.164Z,51.72
2023-05-10T19:34:30.387Z,51.70
2023-05-10T19:37:01.585Z,51.75
2023-05-10T19:39:35.116Z,51.69
2023-05-10T19:42:06.167Z,51.65
2023-05-10T19:44:36.608Z,51.74
2023-05-10T19:47:04.066Z,51.68
2023-05-10T19:49:35.203Z,51.76
2023-05-10T19:52:05.448Z,51.69
2023-05-10T19:54:35.255Z,51.78
2023-05-10T19:57:03.591Z,51.73
2023-05-10T19:59:39.846Z,51.67
2023-05-10T20:02:11.748Z,51.64
2023-05-10T20:04:39.305Z,51.59
2023-05-10T20:07:12.070Z,51.65
2023-05-10T20:09:42.628Z,51.63
2023-05-10T20:12:10.056Z,51.73
2023-05-10T20:14:42.575Z,51.65
2023-05-10T20:17:14.688Z,51.65
2023-05-10T20:19:45.053Z,51.69
2023-05-10T20:22:16.458Z,51.68
2023-05-10T20:24:44.030Z,51.73
2023-05-10T20:27:17.207Z,51.70
2023-05-10T20:29:49.964Z,51.59
2023-05-10T20:32:24.655Z,51.68
2023-05-10T20:34:55.355Z,51.65
2023-05-10T20:37:23.916Z,51.65
2023-05-10T20:40:00.449Z,51.66
2023-05-10T20:42:32.056Z,51.70
2023-05-10T20:45:02.367Z,51.71
2023-05-10T20:47:33.106Z,51.63
2023-05-10T20:50:06.693Z,51.62
2023-05-10T20:52:39.944Z,51.64
2023-05-10T20:55:07.370Z,51.65
2023-05-10T20:57:40.320Z,51.66
2023-05-10T21:00:13.318Z,51.64
2023-05-10T21:02:45.899Z,51.64
2023-05-10T21:05:20.795Z,51.65
2023-05-10T21:08:02.762Z,51.58
2023-05-10T21:10:33.266Z,51.56
2023-05-10T21:13:08.613Z,51.54
2023-05-10T21:15:39.038Z,51.60
2023-05-10T21:18:06.805Z,51.54
2023-05-10T21:20:37.681Z,51.59
2023-05-10T21:23:11.897Z,51.57
2023-05-10T21:25:41.988Z,51.52
2023-05-10T21:28:13.780Z,51.54
2023-05-10T21:30:50.046Z,51.50
2023-05-10T21:33:23.044Z,51.51
2023-05-10T21:35:53.268Z,51.49
2023-05-10T21:38:23.780Z,51.54
2023-05-10T21:40:56.244Z,51.45
2023-05-10T21:43:23.485Z,51.43
2023-05-10T21:46:01.115Z,51.49
2023-05-10T21:48:33.414Z,51.40
2023-05-10T21:51:00.652Z,51.38
2023-05-10T21:53:30.309Z,51.37
2023-05-10T21:56:04.304Z,51.37
2023-05-10T21:58:35.757Z,51.40
2023-05-10T22:01:07.777Z,51.35
2023-05-10T22:03:38.519Z,51.39
2023-05-10T22:06:09.162Z,51.39
2023-05-10T22:08:39.735Z,51.39
2023-05-10T22:11:11.021Z,51.47
2023-05-10T22:13:44.794Z,51.44
2023-05-10T22:16:12.135Z,51.52
2023-05-10T22:18:44.329Z,51.49
2023-05-10T22:21:12.976Z,51.43
2023-05-10T22:23:44.217Z,51.43
2023-05-10T22:26:14.373Z,51.48
2023-05-10T22:28:42.068Z,51.48
2023-05-10T22:31:16.622Z,51.48
2023-05-10T22:33:46.937Z,51.50
2023-05-10T22:36:14.144Z,51.41
2023-05-10T22:38:50.260Z,51.44
2023-05-10T22:41:23.993Z,51.44
2023-05-10T22:43:53.685Z,51.54
2023-05-10T22:46:24.826Z,51.55
2023-05-10T22:48:52.574Z,51.58
2023-05-10T22:51:20.136Z,51.48
2023-05-10T22:53:50.317Z,51.54
2023-05-10T22:56:18.248Z,51.63
2023-05-10T22:58:45.649Z,51.77
2023-05-10T23:01:16.261Z,51.83
2023-05-10T23:03:48.170Z,51.95
2023-05-10T23:06:20.245Z,51.93
2023-05-10T23:08:51.551Z,51.93
2023-05-10T23:11:18.903Z,51.90
2023-05-10T23:13:48.844Z,51.90
2023-05-10T23:16:19.529Z,51.84
2023-05-10T23:18:52.588Z,51.81
2023-05-10T23:21:22.989Z,51.86
2023-05-10T23:23:53.483Z,51.83
2023-05-10T23:26:21.022Z,51.82
2023-05-10T23:28:50.902Z,51.85
2023-05-10T23:31:18.065Z,51.86
2023-05-10T23:33:46.633Z,51.81
2023-05-10T23:36:14.814Z,51.85
2023-05-10T23:38:48.578Z,51.90
2023-05-10T23:41:16.799Z,51.88
2023-05-10T23:43:47.124Z,51.82
2023-05-10T23:46:14.346Z,51.79
2023-05-10T23:48:44.446Z,51.77
2023-05-10T23:51:13.564Z,51.74
2023-05-10T23:53:44.273Z,51.77
2023-05-10T23:56:13.004Z,51.69
2023-05-10T23:58:43.515Z,51.64
